Time,TemperatureF,DewpointF,PressureIn,WindDirection,WindDirectionDegrees,WindSpeedMPH,WindSpeedGustMPH,Humidity,HourlyPrecipIn,Conditions,Clouds,dailyrainin,SoftwareType,DateUTC
2013-10-05 00:00:00,60.3,60.3,30.03,NW,308,0.0,8.0,100,0.00,,,0.03,Wunderground v.1.15,2013-10-05 04:00:00,
2013-10-05 00:05:00,60.3,60.3,30.03,NW,308,0.0,8.0,100,0.00,,,0.00,Wunderground v.1.15,2013-10-05 04:05:00,
2013-10-05 00:10:00,60.3,60.3,30.03,NW,308,0.0,8.0,100,0.00,,,0.00,Wunderground v.1.15,2013-10-05 04:10:00,
2013-10-05 00:15:00,60.3,60.3,30.03,NW,308,0.0,8.0,100,0.00,,,0.01,Wunderground v.1.15,2013-10-05 04:15:00,
2013-10-05 00:20:00,60.2,60.2,30.02,NW,308,0.0,8.0,100,0.00,,,0.01,Wunderground v.1.15,2013-10-05 04:20:00,
2013-10-05 00:25:00,60.0,60.0,30.02,NW,308,0.0,8.0,100,0.00,,,0.01,Wunderground v.1.15,2013-10-05 04:25:00,
2013-10-05 00:30:00,60.0,60.0,30.02,NW,308,0.0,8.0,100,0.00,,,0.01,Wunderground v.1.15,2013-10-05 04:30:00,
2013-10-05 00:35:00,60.0,60.0,30.03,NW,308,0.0,8.0,100,0.00,,,0.01,Wunderground v.1.15,2013-10-05 04:35:00,
2013-10-05 00:45:00,60.1,60.1,30.02,NW,308,0.0,8.0,100,0.00,,,0.01,Wunderground v.1.15,2013-10-05 04:45:00,
2013-10-05 00:50:00,60.1,60.1,30.03,NW,308,0.0,8.0,100,0.00,,,0.01,Wunderground v.1.15,2013-10-05 04:50:00,
2013-10-05 00:55:00,60.1,60.1,30.03,NW,308,0.0,8.0,100,0.00,,,0.01,Wunderground v.1.15,2013-10-05 04:55:00,
2013-10-05 01:00:00,60.1,60.1,30.03,NW,308,0.0,8.0,100,0.00,,,0.01,Wunderground v.1.15,2013-10-05 05:00:00,
2013-10-05 01:05:00,60.2,60.2,30.04,NW,308,0.0,8.0,100,0.00,,,0.01,Wunderground v.1.15,2013-10-05 05:05:00,
2013-10-05 01:10:00,60.3,60.3,30.04,NW,308,0.0,8.0,100,0.00,,,0.01,Wunderground v.1.15,2013-10-05 05:10:00,
2013-10-05 01:15:00,60.3,60.3,30.04,NW,308,0.0,8.0,100,0.00,,,0.01,Wunderground v.1.15,2013-10-05 05:15:00,
2013-10-05 01:25:00,60.3,60.3,30.04,NW,308,0.0,8.0,100,0.00,,,0.01,Wunderground v.1.15,2013-10-05 05:25:00,
2013-10-05 01:30:00,60.2,60.2,30.04,NW,308,0.0,8.0,100,0.00,,,0.01,Wunderground v.1.15,2013-10-05 05:30:00,
2013-10-05 01:35:00,60.2,60.2,30.04,NW,308,0.0,8.0,100,0.00,,,0.01,Wunderground v.1.15,2013-10-05 05:35:00,
2013-10-05 01:40:00,60.2,60.2,30.04,NW,308,0.0,8.0,100,0.00,,,0.01,Wunderground v.1.15,2013-10-05 05:40:00,
2013-10-05 01:45:00,60.3,60.3,30.04,NW,308,0.0,8.0,100,0.00,,,0.01,Wunderground v.1.15,2013-10-05 05:45:00,
2013-10-05 01:50:00,60.2,60.2,30.04,NW,308,0.0,8.0,100,0.00,,,0.01,Wunderground v.1.15,2013-10-05 05:50:00,
2013-10-05 01:55:00,60.2,60.2,30.04,NW,308,0.0,8.0,100,0.00,,,0.01,Wunderground v.1.15,2013-10-05 05:55:00,
2013-10-05 02:05:00,60.2,60.2,30.03,NW,308,0.0,8.0,100,0.00,,,0.01,Wunderground v.1.15,2013-10-05 06:05:00,
2013-10-05 02:10:00,60.2,60.2,30.03,NW,308,0.0,8.0,100,0.00,,,0.01,Wunderground v.1.15,2013-10-05 06:10:00,
2013-10-05 02:15:00,60.1,60.1,30.03,NW,308,0.0,8.0,100,0.00,,,0.01,Wunderground v.1.15,2013-10-05 06:15:00,
2013-10-05 02:20:00,60.0,60.0,30.03,NW,308,0.0,8.0,100,0.00,,,0.01,Wunderground v.1.15,2013-10-05 06:20:00,
2013-10-05 02:25:00,60.0,60.0,30.03,NW,308,0.0,8.0,100,0.00,,,0.02,Wunderground v.1.15,2013-10-05 06:25:00,
2013-10-05 02:30:00,59.8,59.8,30.03,NW,308,0.0,8.0,100,0.00,,,0.02,Wunderground v.1.15,2013-10-05 06:30:00,
2013-10-05 02:35:00,59.8,59.8,30.03,NW,308,0.0,8.0,100,0.00,,,0.02,Wunderground v.1.15,2013-10-05 06:35:00,
2013-10-05 02:45:00,59.7,59.7,30.02,NW,308,0.0,8.0,100,0.00,,,0.02,Wunderground v.1.15,2013-10-05 06:45:00,
2013-10-05 02:50:00,59.8,59.8,30.03,NW,308,0.0,8.0,100,0.00,,,0.02,Wunderground v.1.15,2013-10-05 06:50:00,
2013-10-05 02:55:00,59.9,59.9,30.03,NW,308,0.0,8.0,100,0.00,,,0.02,Wunderground v.1.15,2013-10-05 06:55:00,
2013-10-05 03:00:00,59.9,59.9,30.03,NW,308,0.0,8.0,100,0.00,,,0.02,Wunderground v.1.15,2013-10-05 07:00:00,
2013-10-05 03:05:00,59.9,59.9,30.03,NW,308,0.0,8.0,100,0.00,,,0.02,Wunderground v.1.15,2013-10-05 07:05:00,
2013-10-05 03:10:00,59.8,59.8,30.03,NW,308,0.0,8.0,100,0.00,,,0.02,Wunderground v.1.15,2013-10-05 07:10:00,
2013-10-05 03:15:00,59.9,59.9,30.03,NW,308,0.0,8.0,100,0.00,,,0.02,Wunderground v.1.15,2013-10-05 07:15:00,
2013-10-05 03:25:00,59.8,59.8,30.03,NW,308,0.0,8.0,100,0.00,,,0.02,Wunderground v.1.15,2013-10-05 07:25:00,
2013-10-05 03:35:00,59.7,59.7,30.03,NW,308,0.0,8.0,100,0.00,,,0.02,Wunderground v.1.15,2013-10-05 07:35:00,
2013-10-05 03:40:00,59.7,59.7,30.03,NW,308,0.0,8.0,100,0.00,,,0.02,Wunderground v.1.15,2013-10-05 07:40:00,
2013-10-05 03:45:00,59.6,59.6,30.03,NW,308,0.0,8.0,100,0.00,,,0.02,Wunderground v.1.15,2013-10-05 07:45:00,
2013-10-05 03:50:00,59.6,59.6,30.03,NW,308,0.0,8.0,100,0.00,,,0.03,Wunderground v.1.15,2013-10-05 07:50:00,
2013-10-05 03:55:00,59.6,59.6,30.04,NW,308,0.0,8.0,100,0.00,,,0.03,Wunderground v.1.15,2013-10-05 07:55:00,
2013-10-05 04:00:00,59.6,59.6,30.03,NW,308,0.0,8.0,100,0.00,,,0.03,Wunderground v.1.15,2013-10-05 08:00:00,
2013-10-05 04:05:00,59.6,59.6,30.03,NW,308,0.0,8.0,100,0.00,,,0.03,Wunderground v.1.15,2013-10-05 08:05:00,
2013-10-05 04:10:00,59.5,59.5,30.03,NW,308,0.0,8.0,100,0.00,,,0.03,Wunderground v.1.15,2013-10-05 08:10:00,
2013-10-05 04:20:00,59.5,59.5,30.03,NW,308,0.0,8.0,100,0.00,,,0.03,Wunderground v.1.15,2013-10-05 08:20:00,
2013-10-05 04:25:00,59.5,59.5,30.03,NW,308,0.0,8.0,100,0.00,,,0.03,Wunderground v.1.15,2013-10-05 08:25:00,
2013-10-05 04:30:00,59.4,59.4,30.03,NW,308,0.0,8.0,100,0.00,,,0.03,Wunderground v.1.15,2013-10-05 08:30:00,
2013-10-05 04:35:00,59.2,59.2,30.03,NW,308,0.0,8.0,100,0.00,,,0.03,Wunderground v.1.15,2013-10-05 08:35:00,
2013-10-05 04:40:00,59.1,59.1,30.03,NW,308,0.0,8.0,100,0.00,,,0.03,Wunderground v.1.15,2013-10-05 08:40:00,
2013-10-05 04:45:00,59.1,59.1,30.03,NW,308,0.0,8.0,100,0.00,,,0.03,Wunderground v.1.15,2013-10-05 08:45:00,
2013-10-05 04:50:00,59.1,59.1,30.03,NW,308,0.0,8.0,100,0.00,,,0.03,Wunderground v.1.15,2013-10-05 08:50:00,
2013-10-05 05:00:00,59.1,59.1,30.04,NW,308,0.0,8.0,100,0.00,,,0.03,Wunderground v.1.15,2013-10-05 09:00:00,
2013-10-05 05:10:00,59.2,59.2,30.04,NW,308,0.0,8.0,100,0.00,,,0.03,Wunderground v.1.15,2013-10-05 09:10:00,
2013-10-05 05:15:00,59.2,59.2,30.04,NW,308,0.0,8.0,100,0.00,,,0.03,Wunderground v.1.15,2013-10-05 09:15:00,
2013-10-05 05:20:00,59.3,59.3,30.04,NW,308,0.0,8.0,100,0.00,,,0.04,Wunderground v.1.15,2013-10-05 09:20:00,
2013-10-05 05:25:00,59.3,59.3,30.04,NW,308,0.0,8.0,100,0.00,,,0.04,Wunderground v.1.15,2013-10-05 09:25:00,
2013-10-05 05:30:00,59.3,59.3,30.05,NW,308,0.0,8.0,100,0.00,,,0.04,Wunderground v.1.15,2013-10-05 09:30:00,
2013-10-05 05:35:00,59.3,59.3,30.04,NW,308,0.0,8.0,100,0.00,,,0.04,Wunderground v.1.15,2013-10-05 09:35:00,
2013-10-05 05:40:00,59.3,59.3,30.04,NW,308,0.0,8.0,100,0.00,,,0.04,Wunderground v.1.15,2013-10-05 09:40:00,
2013-10-05 05:45:00,59.3,59.3,30.04,NW,308,0.0,8.0,100,0.00,,,0.04,Wunderground v.1.15,2013-10-05 09:45:00,
2013-10-05 05:55:00,59.4,59.4,30.05,NW,308,0.0,8.0,100,0.00,,,0.04,Wunderground v.1.15,2013-10-05 09:55:00,
2013-10-05 06:00:00,59.5,59.5,30.05,NW,308,0.0,8.0,100,0.00,,,0.04,Wunderground v.1.15,2013-10-05 10:00:00,
2013-10-05 06:05:00,59.5,59.5,30.05,NW,308,0.0,8.0,100,0.00,,,0.04,Wunderground v.1.15,2013-10-05 10:05:00,
2013-10-05 06:10:00,59.5,59.5,30.05,NW,308,0.0,8.0,100,0.00,,,0.04,Wunderground v.1.15,2013-10-05 10:10:00,
2013-10-05 06:15:00,59.5,59.5,30.05,NW,308,0.0,8.0,100,0.00,,,0.05,Wunderground v.1.15,2013-10-05 10:15:00,
2013-10-05 06:20:00,59.5,59.5,30.05,NW,308,0.0,8.0,100,0.00,,,0.05,Wunderground v.1.15,2013-10-05 10:20:00,
2013-10-05 06:30:00,59.5,59.5,30.05,NW,308,0.0,8.0,100,0.00,,,0.05,Wunderground v.1.15,2013-10-05 10:30:00,
2013-10-05 06:35:00,59.4,59.4,30.05,NW,308,0.0,8.0,100,0.00,,,0.05,Wunderground v.1.15,2013-10-05 10:35:00,
2013-10-05 06:40:00,59.4,59.4,30.05,NW,308,0.0,8.0,100,0.00,,,0.05,Wunderground v.1.15,2013-10-05 10:40:00,
2013-10-05 06:45:00,59.3,59.3,30.05,NW,308,0.0,8.0,100,0.00,,,0.05,Wunderground v.1.15,2013-10-05 10:45:00,
2013-10-05 06:50:00,59.3,59.3,30.06,NW,308,0.0,8.0,100,0.00,,,0.05,Wunderground v.1.15,2013-10-05 10:50:00,
2013-10-05 06:55:00,59.3,59.3,30.06,NW,308,0.0,8.0,100,0.00,,,0.05,Wunderground v.1.15,2013-10-05 10:55:00,
2013-10-05 07:00:00,59.3,59.3,30.06,NW,308,0.0,8.0,100,0.00,,,0.05,Wunderground v.1.15,2013-10-05 11:00:00,
2013-10-05 07:10:00,59.3,59.3,30.06,NW,308,0.0,8.0,100,0.00,,,0.05,Wunderground v.1.15,2013-10-05 11:10:00,
2013-10-05 07:15:00,59.3,59.3,30.06,NW,308,0.0,8.0,100,0.00,,,0.05,Wunderground v.1.15,2013-10-05 11:15:00,
2013-10-05 07:20:00,59.3,59.3,30.06,NW,308,0.0,8.0,100,0.00,,,0.05,Wunderground v.1.15,2013-10-05 11:20:00,
2013-10-05 07:25:00,59.3,59.3,30.06,NW,308,0.0,8.0,100,0.00,,,0.05,Wunderground v.1.15,2013-10-05 11:25:00,
2013-10-05 07:30:00,59.4,59.4,30.06,NW,308,0.0,8.0,100,0.00,,,0.05,Wunderground v.1.15,2013-10-05 11:30:00,
2013-10-05 07:35:00,59.4,59.4,30.06,NW,308,0.0,8.0,100,0.00,,,0.05,Wunderground v.1.15,2013-10-05 11:35:00,
2013-10-05 07:40:00,59.3,59.3,30.06,NW,308,0.0,8.0,100,0.00,,,0.06,Wunderground v.1.15,2013-10-05 11:40:00,
2013-10-05 07:45:00,59.4,59.4,30.06,NW,308,0.0,8.0,100,0.00,,,0.06,Wunderground v.1.15,2013-10-05 11:45:00,
2013-10-05 07:55:00,59.4,59.4,30.06,NW,308,0.0,8.0,100,0.00,,,0.06,Wunderground v.1.15,2013-10-05 11:55:00,
2013-10-05 08:00:00,59.4,59.4,30.06,NW,308,0.0,8.0,100,0.00,,,0.06,Wunderground v.1.15,2013-10-05 12:00:00,
2013-10-05 08:05:00,59.4,59.4,30.06,NW,308,0.0,8.0,100,0.00,,,0.06,Wunderground v.1.15,2013-10-05 12:05:00,
2013-10-05 08:10:00,59.4,59.4,30.06,NW,308,0.0,8.0,100,0.00,,,0.06,Wunderground v.1.15,2013-10-05 12:10:00,
2013-10-05 08:15:00,59.4,59.4,30.07,NW,308,0.0,8.0,100,0.00,,,0.06,Wunderground v.1.15,2013-10-05 12:15:00,
2013-10-05 08:20:00,59.4,59.4,30.07,NW,308,0.0,8.0,100,0.00,,,0.06,Wunderground v.1.15,2013-10-05 12:20:00,
2013-10-05 08:25:00,59.3,59.3,30.07,NW,308,0.0,8.0,100,0.00,,,0.06,Wunderground v.1.15,2013-10-05 12:25:00,
2013-10-05 08:35:00,59.3,59.3,30.07,WSW,237,0.0,8.0,100,0.00,,,0.07,Wunderground v.1.15,2013-10-05 12:35:00,
2013-10-05 08:40:00,59.4,59.4,30.07,WSW,237,0.0,8.0,100,0.00,,,0.07,Wunderground v.1.15,2013-10-05 12:40:00,
2013-10-05 08:50:00,59.6,59.6,30.08,WSW,237,0.0,8.0,100,0.00,,,0.07,Wunderground v.1.15,2013-10-05 12:50:00,
2013-10-05 08:55:00,59.7,59.7,30.08,WSW,237,0.0,8.0,100,0.00,,,0.07,Wunderground v.1.15,2013-10-05 12:55:00,
2013-10-05 09:00:00,59.9,59.9,30.08,WSW,237,0.0,8.0,100,0.00,,,0.07,Wunderground v.1.15,2013-10-05 13:00:00,
2013-10-05 09:10:00,60.2,60.2,30.08,WSW,237,0.0,8.0,100,0.00,,,0.07,Wunderground v.1.15,2013-10-05 13:10:00,
2013-10-05 09:15:00,60.4,60.4,30.08,WSW,237,0.0,8.0,100,0.00,,,0.07,Wunderground v.1.15,2013-10-05 13:15:00,
2013-10-05 09:20:00,60.4,60.4,30.09,NW,316,0.0,8.0,100,0.00,,,0.07,Wunderground v.1.15,2013-10-05 13:20:00,
2013-10-05 09:30:00,60.4,60.4,30.09,SSW,197,0.0,8.0,100,0.00,,,0.07,Wunderground v.1.15,2013-10-05 13:30:00,
2013-10-05 09:35:00,60.4,60.4,30.08,SSW,197,0.0,8.0,100,0.00,,,0.07,Wunderground v.1.15,2013-10-05 13:35:00,
2013-10-05 09:40:00,60.5,60.5,30.08,SSW,197,0.0,8.0,100,0.00,,,0.07,Wunderground v.1.15,2013-10-05 13:40:00,
2013-10-05 09:45:00,60.5,60.5,30.09,SSW,197,0.0,8.0,100,0.00,,,0.07,Wunderground v.1.15,2013-10-05 13:45:00,
2013-10-05 09:50:00,60.7,60.7,30.09,SSW,197,0.0,8.0,100,0.00,,,0.07,Wunderground v.1.15,2013-10-05 13:50:00,
2013-10-05 09:55:00,60.9,60.9,30.09,SSW,197,0.0,8.0,100,0.00,,,0.07,Wunderground v.1.15,2013-10-05 13:55:00,
2013-10-05 10:05:00,61.1,61.1,30.09,SSW,197,0.0,8.0,100,0.00,,,0.07,Wunderground v.1.15,2013-10-05 14:05:00,
2013-10-05 10:10:00,60.9,60.9,30.08,SSW,197,0.0,8.0,100,0.00,,,0.07,Wunderground v.1.15,2013-10-05 14:10:00,
2013-10-05 10:15:00,60.9,60.9,30.08,SSW,197,0.0,8.0,100,0.00,,,0.07,Wunderground v.1.15,2013-10-05 14:15:00,
2013-10-05 10:20:00,60.9,60.9,30.08,South,182,1.0,8.0,100,0.00,,,0.08,Wunderground v.1.15,2013-10-05 14:20:00,
2013-10-05 10:25:00,60.8,60.8,30.09,SSW,203,1.0,8.0,100,0.00,,,0.08,Wunderground v.1.15,2013-10-05 14:25:00,
2013-10-05 10:30:00,60.8,60.8,30.09,SSW,203,0.0,8.0,100,0.00,,,0.08,Wunderground v.1.15,2013-10-05 14:30:00,
2013-10-05 10:35:00,60.8,60.8,30.08,SSW,203,0.0,8.0,100,0.00,,,0.08,Wunderground v.1.15,2013-10-05 14:35:00,
2013-10-05 10:40:00,60.9,60.9,30.08,SSW,203,0.0,8.0,100,0.00,,,0.08,Wunderground v.1.15,2013-10-05 14:40:00,
2013-10-05 10:50:00,61.0,61.0,30.08,SSW,203,0.0,8.0,100,0.00,,,0.08,Wunderground v.1.15,2013-10-05 14:50:00,
2013-10-05 10:55:00,61.1,61.1,30.08,SSW,203,0.0,8.0,100,0.00,,,0.08,Wunderground v.1.15,2013-10-05 14:55:00,
2013-10-05 11:00:00,61.4,61.4,30.08,SSW,203,0.0,8.0,100,0.00,,,0.08,Wunderground v.1.15,2013-10-05 15:00:00,
2013-10-05 11:05:00,61.6,61.6,30.08,SSW,203,0.0,8.0,100,0.00,,,0.08,Wunderground v.1.15,2013-10-05 15:05:00,
2013-10-05 11:10:00,61.9,61.9,30.08,SSW,203,1.0,8.0,100,0.00,,,0.08,Wunderground v.1.15,2013-10-05 15:10:00,
2013-10-05 11:15:00,62.0,62.0,30.07,SSW,203,1.0,8.0,100,0.00,,,0.08,Wunderground v.1.15,2013-10-05 15:15:00,
2013-10-05 11:20:00,62.0,62.0,30.07,SSW,205,1.0,8.0,100,0.00,,,0.08,Wunderground v.1.15,2013-10-05 15:20:00,
2013-10-05 11:25:00,62.2,62.2,30.08,SSW,202,1.0,8.0,100,0.00,,,0.09,Wunderground v.1.15,2013-10-05 15:25:00,
2013-10-05 11:30:00,62.5,62.5,30.08,SSW,196,2.0,2.0,100,0.00,,,0.09,Wunderground v.1.15,2013-10-05 15:30:00,
2013-10-05 11:40:00,62.4,62.4,30.08,SSW,196,1.0,8.0,100,0.00,,,0.09,Wunderground v.1.15,2013-10-05 15:40:00,
2013-10-05 11:45:00,62.3,62.3,30.07,SSW,192,2.0,8.0,100,0.00,,,0.09,Wunderground v.1.15,2013-10-05 15:45:00,
2013-10-05 11:50:00,62.4,62.4,30.08,SSW,212,1.0,8.0,100,0.00,,,0.09,Wunderground v.1.15,2013-10-05 15:50:00,
2013-10-05 11:55:00,62.4,62.4,30.08,SSW,212,1.0,8.0,100,0.00,,,0.09,Wunderground v.1.15,2013-10-05 15:55:00,
2013-10-05 12:00:00,62.5,62.5,30.08,SSW,212,1.0,1.0,100,0.00,,,0.09,Wunderground v.1.15,2013-10-05 16:00:00,
2013-10-05 12:05:00,62.8,62.8,30.08,SSW,212,0.0,8.0,100,0.00,,,0.09,Wunderground v.1.15,2013-10-05 16:05:00,
2013-10-05 12:10:00,62.9,62.9,30.08,SW,229,0.0,8.0,100,0.00,,,0.09,Wunderground v.1.15,2013-10-05 16:10:00,
2013-10-05 12:20:00,62.9,62.9,30.08,SW,226,1.0,8.0,100,0.00,,,0.09,Wunderground v.1.15,2013-10-05 16:20:00,
2013-10-05 12:25:00,63.0,63.0,30.08,SW,226,0.0,8.0,100,0.00,,,0.09,Wunderground v.1.15,2013-10-05 16:25:00,
2013-10-05 12:30:00,63.2,63.2,30.08,SW,223,0.0,8.0,100,0.00,,,0.09,Wunderground v.1.15,2013-10-05 16:30:00,
2013-10-05 12:35:00,63.4,63.4,30.07,SW,221,1.0,8.0,100,0.00,,,0.09,Wunderground v.1.15,2013-10-05 16:35:00,
2013-10-05 12:40:00,63.6,63.6,30.07,SSW,204,1.0,1.0,100,0.00,,,0.09,Wunderground v.1.15,2013-10-05 16:40:00,
2013-10-05 12:45:00,63.8,63.8,30.06,SSW,208,1.0,2.0,100,0.00,,,0.09,Wunderground v.1.15,2013-10-05 16:45:00,
2013-10-05 12:50:00,63.9,63.9,30.06,SSW,196,1.0,8.0,100,0.00,,,0.09,Wunderground v.1.15,2013-10-05 16:50:00,
2013-10-05 13:00:00,64.0,63.7,30.06,SSW,210,1.0,1.0,99,0.00,,,0.10,Wunderground v.1.15,2013-10-05 17:00:00,
2013-10-05 13:05:00,64.0,63.7,30.06,SSW,210,1.0,8.0,99,0.00,,,0.10,Wunderground v.1.15,2013-10-05 17:05:00,
2013-10-05 13:10:00,64.2,63.9,30.06,SSW,210,1.0,1.0,99,0.00,,,0.10,Wunderground v.1.15,2013-10-05 17:10:00,
2013-10-05 13:15:00,64.3,64.0,30.06,SSW,210,0.0,8.0,99,0.00,,,0.10,Wunderground v.1.15,2013-10-05 17:15:00,
2013-10-05 13:20:00,64.5,64.2,30.06,SSW,210,0.0,8.0,99,0.00,,,0.10,Wunderground v.1.15,2013-10-05 17:20:00,
2013-10-05 13:25:00,64.5,63.9,30.05,SSW,210,0.0,8.0,98,0.00,,,0.10,Wunderground v.1.15,2013-10-05 17:25:00,
2013-10-05 13:30:00,64.5,63.9,30.05,SSW,213,1.0,8.0,98,0.00,,,0.10,Wunderground v.1.15,2013-10-05 17:30:00,
2013-10-05 13:40:00,64.9,64.0,30.04,South,190,2.0,2.0,97,0.00,,,0.10,Wunderground v.1.15,2013-10-05 17:40:00,
2013-10-05 13:50:00,65.2,64.3,30.04,SSW,207,1.0,8.0,97,0.00,,,0.10,Wunderground v.1.15,2013-10-05 17:50:00,
2013-10-05 13:55:00,65.8,64.9,30.04,SSE,163,1.0,8.0,97,0.00,,,0.10,Wunderground v.1.15,2013-10-05 17:55:00,
2013-10-05 14:00:00,66.0,64.8,30.03,SSW,192,1.0,8.0,96,0.00,,,0.10,Wunderground v.1.15,2013-10-05 18:00:00,
2013-10-05 14:05:00,66.1,64.9,30.03,SW,221,1.0,8.0,96,0.00,,,0.10,Wunderground v.1.15,2013-10-05 18:05:00,
2013-10-05 14:10:00,66.5,64.7,30.03,SSW,210,2.0,2.0,94,0.00,,,0.10,Wunderground v.1.15,2013-10-05 18:10:00,
2013-10-05 14:15:00,66.8,65.3,30.03,SSW,210,2.0,8.0,95,0.00,,,0.10,Wunderground v.1.15,2013-10-05 18:15:00,
2013-10-05 14:20:00,67.0,64.9,30.03,SW,217,1.0,8.0,93,0.00,,,0.10,Wunderground v.1.15,2013-10-05 18:20:00,
2013-10-05 14:25:00,66.8,64.7,30.03,SW,217,1.0,8.0,93,0.00,,,0.11,Wunderground v.1.15,2013-10-05 18:25:00,
2013-10-05 14:35:00,66.8,65.0,30.03,WSW,238,1.0,8.0,94,0.00,,,0.11,Wunderground v.1.15,2013-10-05 18:35:00,
2013-10-05 14:40:00,67.1,65.0,30.03,South,188,1.0,8.0,93,0.00,,,0.11,Wunderground v.1.15,2013-10-05 18:40:00,
2013-10-05 14:45:00,67.2,65.1,30.03,South,188,1.0,8.0,93,0.00,,,0.11,Wunderground v.1.15,2013-10-05 18:45:00,
2013-10-05 14:50:00,67.6,65.2,30.03,South,178,1.0,1.0,92,0.00,,,0.11,Wunderground v.1.15,2013-10-05 18:50:00,
2013-10-05 14:55:00,68.2,66.1,30.03,South,179,1.0,2.0,93,0.00,,,0.11,Wunderground v.1.15,2013-10-05 18:55:00,
2013-10-05 15:00:00,68.6,65.9,30.03,SW,236,2.0,2.0,91,0.00,,,0.11,Wunderground v.1.15,2013-10-05 19:00:00,
2013-10-05 15:05:00,68.9,65.8,30.03,SW,225,2.0,8.0,90,0.00,,,0.11,Wunderground v.1.15,2013-10-05 19:05:00,
2013-10-05 15:15:00,69.4,65.7,30.04,SSW,212,2.0,8.0,88,0.00,,,0.11,Wunderground v.1.15,2013-10-05 19:15:00,
2013-10-05 15:20:00,69.5,65.8,30.04,SSW,199,1.0,8.0,88,0.00,,,0.11,Wunderground v.1.15,2013-10-05 19:20:00,
2013-10-05 15:30:00,69.9,65.5,30.04,SSW,199,1.0,1.0,86,0.00,,,0.11,Wunderground v.1.15,2013-10-05 19:30:00,
2013-10-05 15:35:00,70.0,65.6,30.03,SSW,199,1.0,2.0,86,0.00,,,0.11,Wunderground v.1.15,2013-10-05 19:35:00,
2013-10-05 15:40:00,70.1,65.4,30.03,SSW,199,1.0,1.0,85,0.00,,,0.11,Wunderground v.1.15,2013-10-05 19:40:00,
2013-10-05 15:45:00,70.2,65.8,30.04,SSW,199,1.0,8.0,86,0.00,,,0.11,Wunderground v.1.15,2013-10-05 19:45:00,
2013-10-05 15:50:00,70.4,66.3,30.04,SW,217,1.0,1.0,87,0.00,,,0.11,Wunderground v.1.15,2013-10-05 19:50:00,
2013-10-05 15:55:00,70.3,65.9,30.04,SW,217,1.0,8.0,86,0.00,,,0.11,Wunderground v.1.15,2013-10-05 19:55:00,
2013-10-05 16:00:00,70.1,66.4,30.04,SW,218,1.0,8.0,88,0.00,,,0.11,Wunderground v.1.15,2013-10-05 20:00:00,
2013-10-05 16:10:00,70.0,66.0,30.03,SW,218,0.0,8.0,87,0.00,,,0.11,Wunderground v.1.15,2013-10-05 20:10:00,
2013-10-05 16:15:00,69.9,65.9,30.03,SW,218,1.0,8.0,87,0.00,,,0.11,Wunderground v.1.15,2013-10-05 20:15:00,
2013-10-05 16:20:00,69.9,65.9,30.03,SW,218,1.0,1.0,87,0.00,,,0.11,Wunderground v.1.15,2013-10-05 20:20:00,
2013-10-05 16:25:00,70.0,66.0,30.03,SW,214,0.0,8.0,87,0.00,,,0.11,Wunderground v.1.15,2013-10-05 20:25:00,
2013-10-05 16:30:00,70.0,65.6,30.03,SW,217,1.0,8.0,86,0.00,,,0.11,Wunderground v.1.15,2013-10-05 20:30:00,
2013-10-05 16:35:00,69.9,65.5,30.03,SW,217,1.0,8.0,86,0.00,,,0.11,Wunderground v.1.15,2013-10-05 20:35:00,
2013-10-05 16:40:00,69.9,65.5,30.03,SW,217,1.0,1.0,86,0.00,,,0.11,Wunderground v.1.15,2013-10-05 20:40:00,
2013-10-05 16:50:00,69.8,65.4,30.03,SW,217,1.0,8.0,86,0.00,,,0.11,Wunderground v.1.15,2013-10-05 20:50:00,
2013-10-05 16:55:00,69.8,65.4,30.03,SW,217,1.0,8.0,86,0.00,,,0.11,Wunderground v.1.15,2013-10-05 20:55:00,
2013-10-05 17:00:00,69.7,65.3,30.03,SW,217,0.0,8.0,86,0.00,,,0.11,Wunderground v.1.15,2013-10-05 21:00:00,
2013-10-05 17:05:00,69.5,65.1,30.03,SW,217,0.0,8.0,86,0.00,,,0.11,Wunderground v.1.15,2013-10-05 21:05:00,
2013-10-05 17:10:00,69.5,65.1,30.04,SW,217,0.0,8.0,86,0.00,,,0.11,Wunderground v.1.15,2013-10-05 21:10:00,
2013-10-05 17:20:00,69.4,65.4,30.03,SW,217,0.0,8.0,87,0.00,,,0.11,Wunderground v.1.15,2013-10-05 21:20:00,
2013-10-05 17:25:00,69.4,66.0,30.04,SW,217,0.0,8.0,89,0.00,,,0.11,Wunderground v.1.15,2013-10-05 21:25:00,
2013-10-05 17:30:00,69.2,66.1,30.04,SW,217,0.0,8.0,90,0.00,,,0.11,Wunderground v.1.15,2013-10-05 21:30:00,
2013-10-05 17:35:00,68.9,65.8,30.04,SW,217,0.0,8.0,90,0.00,,,0.11,Wunderground v.1.15,2013-10-05 21:35:00,
2013-10-05 17:40:00,68.7,65.6,30.04,SW,217,0.0,8.0,90,0.00,,,0.11,Wunderground v.1.15,2013-10-05 21:40:00,
2013-10-05 17:45:00,68.4,65.7,30.04,SW,217,0.0,8.0,91,0.00,,,0.11,Wunderground v.1.15,2013-10-05 21:45:00,
2013-10-05 17:50:00,68.1,65.4,30.04,SW,217,0.0,8.0,91,0.00,,,0.11,Wunderground v.1.15,2013-10-05 21:50:00,
2013-10-05 17:55:00,67.9,65.5,30.04,SW,217,0.0,8.0,92,0.00,,,0.11,Wunderground v.1.15,2013-10-05 21:55:00,
2013-10-05 18:00:00,67.7,65.3,30.03,SW,217,0.0,8.0,92,0.00,,,0.11,Wunderground v.1.15,2013-10-05 22:00:00,
2013-10-05 18:10:00,67.2,65.4,30.04,North,355,0.0,8.0,94,0.00,,,0.11,Wunderground v.1.15,2013-10-05 22:10:00,
2013-10-05 18:15:00,67.0,65.2,30.04,North,355,0.0,8.0,94,0.00,,,0.11,Wunderground v.1.15,2013-10-05 22:15:00,
2013-10-05 18:20:00,66.9,65.1,30.04,North,355,0.0,8.0,94,0.00,,,0.11,Wunderground v.1.15,2013-10-05 22:20:00,
2013-10-05 18:25:00,66.7,65.2,30.04,NNE,30,0.0,8.0,95,0.00,,,0.11,Wunderground v.1.15,2013-10-05 22:25:00,
2013-10-05 18:30:00,66.6,65.1,30.04,NNE,30,0.0,8.0,95,0.00,,,0.11,Wunderground v.1.15,2013-10-05 22:30:00,
2013-10-05 18:35:00,66.5,65.0,30.04,NNE,30,0.0,8.0,95,0.00,,,0.11,Wunderground v.1.15,2013-10-05 22:35:00,
2013-10-05 18:45:00,66.1,64.6,30.04,NNE,30,0.0,8.0,95,0.00,,,0.11,Wunderground v.1.15,2013-10-05 22:45:00,
2013-10-05 18:50:00,66.0,64.8,30.04,NNE,30,0.0,8.0,96,0.00,,,0.11,Wunderground v.1.15,2013-10-05 22:50:00,
2013-10-05 18:55:00,65.8,64.6,30.05,NNE,30,0.0,8.0,96,0.00,,,0.11,Wunderground v.1.15,2013-10-05 22:55:00,
2013-10-05 19:05:00,65.7,64.8,30.05,NNE,30,0.0,8.0,97,0.00,,,0.11,Wunderground v.1.15,2013-10-05 23:05:00,
2013-10-05 19:10:00,65.6,64.7,30.04,NNE,30,0.0,8.0,97,0.00,,,0.11,Wunderground v.1.15,2013-10-05 23:10:00,
2013-10-05 19:15:00,65.5,64.6,30.04,NNE,30,0.0,8.0,97,0.00,,,0.11,Wunderground v.1.15,2013-10-05 23:15:00,
2013-10-05 19:20:00,65.4,64.8,30.04,NNE,30,0.0,8.0,98,0.00,,,0.11,Wunderground v.1.15,2013-10-05 23:20:00,
2013-10-05 19:25:00,65.3,64.7,30.05,NNE,30,0.0,8.0,98,0.00,,,0.11,Wunderground v.1.15,2013-10-05 23:25:00,
2013-10-05 19:30:00,65.2,64.6,30.05,NNE,30,0.0,8.0,98,0.00,,,0.11,Wunderground v.1.15,2013-10-05 23:30:00,
2013-10-05 19:35:00,65.2,64.6,30.05,NNE,30,0.0,8.0,98,0.00,,,0.11,Wunderground v.1.15,2013-10-05 23:35:00,
2013-10-05 19:45:00,65.0,64.7,30.05,NNE,30,0.0,8.0,99,0.00,,,0.11,Wunderground v.1.15,2013-10-05 23:45:00,
2013-10-05 19:50:00,65.0,64.7,30.05,NNE,30,0.0,8.0,99,0.00,,,0.11,Wunderground v.1.15,2013-10-05 23:50:00,
2013-10-05 19:55:00,65.0,64.7,30.05,NNE,30,0.0,8.0,99,0.00,,,0.11,Wunderground v.1.15,2013-10-05 23:55:00,
2013-10-05 20:00:00,64.9,64.6,30.05,NNE,30,0.0,8.0,99,0.00,,,0.11,Wunderground v.1.15,2013-10-06 00:00:00,
2013-10-05 20:05:00,64.9,64.6,30.05,NNE,30,0.0,8.0,99,0.00,,,0.11,Wunderground v.1.15,2013-10-06 00:05:00,
2013-10-05 20:10:00,64.9,64.6,30.05,NNE,30,0.0,8.0,99,0.00,,,0.11,Wunderground v.1.15,2013-10-06 00:10:00,
2013-10-05 20:15:00,64.9,64.6,30.05,NNE,30,0.0,8.0,99,0.00,,,0.11,Wunderground v.1.15,2013-10-06 00:15:00,
2013-10-05 20:25:00,64.8,64.5,30.06,NNE,30,0.0,8.0,99,0.00,,,0.11,Wunderground v.1.15,2013-10-06 00:25:00,
2013-10-05 20:30:00,64.8,64.5,30.06,NNE,30,0.0,8.0,99,0.00,,,0.11,Wunderground v.1.15,2013-10-06 00:30:00,
2013-10-05 20:40:00,64.8,64.5,30.06,NNE,30,0.0,8.0,99,0.00,,,0.11,Wunderground v.1.15,2013-10-06 00:40:00,
2013-10-05 20:45:00,64.7,64.4,30.06,NNE,30,0.0,8.0,99,0.00,,,0.11,Wunderground v.1.15,2013-10-06 00:45:00,
2013-10-05 20:50:00,64.8,64.8,30.06,NNE,30,0.0,8.0,100,0.00,,,0.11,Wunderground v.1.15,2013-10-06 00:50:00,
2013-10-05 20:55:00,64.8,64.8,30.06,NNE,30,0.0,8.0,100,0.00,,,0.11,Wunderground v.1.15,2013-10-06 00:55:00,
2013-10-05 21:05:00,64.9,64.9,30.07,NNE,30,0.0,8.0,100,0.00,,,0.11,Wunderground v.1.15,2013-10-06 01:05:00,
2013-10-05 21:15:00,65.0,64.7,30.07,NNE,30,0.0,8.0,99,0.00,,,0.11,Wunderground v.1.15,2013-10-06 01:15:00,
2013-10-05 21:20:00,65.0,64.7,30.07,SSW,200,0.0,8.0,99,0.00,,,0.11,Wunderground v.1.15,2013-10-06 01:20:00,
2013-10-05 21:25:00,65.2,64.9,30.07,SSW,200,0.0,8.0,99,0.00,,,0.11,Wunderground v.1.15,2013-10-06 01:25:00,
2013-10-05 21:30:00,65.2,64.9,30.07,SSW,200,0.0,8.0,99,0.00,,,0.11,Wunderground v.1.15,2013-10-06 01:30:00,
2013-10-05 21:35:00,65.1,64.5,30.07,SSW,200,0.0,8.0,98,0.00,,,0.11,Wunderground v.1.15,2013-10-06 01:35:00,
2013-10-05 21:45:00,64.9,64.3,30.07,SSW,200,0.0,8.0,98,0.00,,,0.11,Wunderground v.1.15,2013-10-06 01:45:00,
2013-10-05 21:50:00,64.8,64.2,30.07,SSW,200,0.0,8.0,98,0.00,,,0.11,Wunderground v.1.15,2013-10-06 01:50:00,
2013-10-05 22:00:00,64.6,64.3,30.07,SSW,200,0.0,8.0,99,0.00,,,0.11,Wunderground v.1.15,2013-10-06 02:00:00,
2013-10-05 22:05:00,64.5,64.2,30.07,SSW,200,0.0,8.0,99,0.00,,,0.11,Wunderground v.1.15,2013-10-06 02:05:00,
2013-10-05 22:10:00,64.4,64.1,30.07,SSW,200,0.0,8.0,99,0.00,,,0.11,Wunderground v.1.15,2013-10-06 02:10:00,
2013-10-05 22:15:00,64.3,64.0,30.07,SSW,200,0.0,8.0,99,0.00,,,0.11,Wunderground v.1.15,2013-10-06 02:15:00,
2013-10-05 22:20:00,64.3,64.0,30.07,SSW,200,0.0,8.0,99,0.00,,,0.11,Wunderground v.1.15,2013-10-06 02:20:00,
2013-10-05 22:25:00,64.2,64.2,30.07,SSW,200,0.0,8.0,100,0.00,,,0.11,Wunderground v.1.15,2013-10-06 02:25:00,
2013-10-05 22:35:00,64.1,64.1,30.07,SSW,200,0.0,8.0,100,0.00,,,0.11,Wunderground v.1.15,2013-10-06 02:35:00,
2013-10-05 22:40:00,64.1,64.1,30.07,SSW,200,0.0,8.0,100,0.00,,,0.11,Wunderground v.1.15,2013-10-06 02:40:00,
2013-10-05 22:45:00,64.1,64.1,30.07,SSW,201,0.0,8.0,100,0.00,,,0.11,Wunderground v.1.15,2013-10-06 02:45:00,
2013-10-05 22:50:00,64.0,64.0,30.08,SSW,201,0.0,8.0,100,0.00,,,0.11,Wunderground v.1.15,2013-10-06 02:50:00,
2013-10-05 22:55:00,64.0,64.0,30.08,SSW,201,0.0,8.0,100,0.00,,,0.11,Wunderground v.1.15,2013-10-06 02:55:00,
2013-10-05 23:00:00,63.9,63.9,30.08,WSW,240,0.0,8.0,100,0.00,,,0.11,Wunderground v.1.15,2013-10-06 03:00:00,
2013-10-05 23:05:00,63.9,63.9,30.07,WSW,242,0.0,8.0,100,0.00,,,0.11,Wunderground v.1.15,2013-10-06 03:05:00,
2013-10-05 23:10:00,63.8,63.8,30.07,WSW,242,0.0,8.0,100,0.00,,,0.11,Wunderground v.1.15,2013-10-06 03:10:00,
2013-10-05 23:20:00,63.7,63.4,30.08,WSW,242,0.0,8.0,99,0.00,,,0.11,Wunderground v.1.15,2013-10-06 03:20:00,
2013-10-05 23:25:00,63.7,63.4,30.08,WSW,242,0.0,8.0,99,0.00,,,0.11,Wunderground v.1.15,2013-10-06 03:25:00,
2013-10-05 23:30:00,63.6,63.3,30.08,WSW,242,0.0,8.0,99,0.00,,,0.11,Wunderground v.1.15,2013-10-06 03:30:00,
2013-10-05 23:35:00,63.5,63.2,30.08,WSW,242,0.0,8.0,99,0.00,,,0.11,Wunderground v.1.15,2013-10-06 03:35:00,
2013-10-05 23:40:00,63.6,63.3,30.08,WSW,242,0.0,8.0,99,0.00,,,0.11,Wunderground v.1.15,2013-10-06 03:40:00,
2013-10-05 23:45:00,63.5,63.5,30.08,WSW,242,0.0,8.0,100,0.00,,,0.11,Wunderground v.1.15,2013-10-06 03:45:00,
2013-10-05 23:55:00,63.3,63.3,30.08,WSW,242,0.0,8.0,100,0.00,,,0.11,Wunderground v.1.15,2013-10-06 03:55:00,